createdAt,value
2023-02-16T00:00:24.093Z,102405.16
2023-02-16T00:02:50.676Z,102401.25
2023-02-16T00:05:37.404Z,102401.94
2023-02-16T00:08:04.084Z,102401.28
2023-02-16T00:10:33.528Z,102416.75
2023-02-16T00:13:19.380Z,102399.97
2023-02-16T00:15:46.527Z,102413.44
2023-02-16T00:18:21.894Z,102416.16
2023-02-16T00:20:49.477Z,102412.22
2023-02-16T00:23:16.233Z,102410.91
2023-02-16T00:25:42.973Z,102403.28
2023-02-16T00:28:19.414Z,102406.69
2023-02-16T00:30:46.799Z,102405.16
2023-02-16T00:33:19.112Z,102408.19
2023-02-16T00:35:45.792Z,102406.91
2023-02-16T00:38:13.203Z,102401.47
2023-02-16T00:40:41.648Z,102411.69
2023-02-16T00:43:10.106Z,102400.81
2023-02-16T00:45:38.188Z,102407.38
2023-02-16T00:48:05.197Z,102401.81
2023-02-16T00:50:34.222Z,102403.69
2023-02-16T00:53:02.685Z,102387.22
2023-02-16T00:55:33.434Z,102408.31
2023-02-16T00:58:15.394Z,102402.56
2023-02-16T01:00:52.234Z,102395.06
2023-02-16T01:03:24.266Z,102386.25
2023-02-16T01:06:15.168Z,102393.13
2023-02-16T01:09:01.496Z,102379.50
2023-02-16T01:11:28.856Z,102385.25
2023-02-16T01:13:56.787Z,102393.25
2023-02-16T01:16:36.559Z,102387.00
2023-02-16T01:19:03.478Z,102382.25
2023-02-16T01:21:30.035Z,102386.00
2023-02-16T01:23:56.637Z,102375.59
2023-02-16T01:26:23.915Z,102391.06
2023-02-16T01:28:50.600Z,102379.81
2023-02-16T01:31:17.172Z,102377.69
2023-02-16T01:33:44.057Z,102372.25
2023-02-16T01:36:24.476Z,102370.91
2023-02-16T01:38:51.058Z,102357.84
2023-02-16T01:41:28.293Z,102356.00
2023-02-16T01:44:18.776Z,102356.13
2023-02-16T01:46:50.951Z,102340.84
2023-02-16T01:49:20.106Z,102345.63
2023-02-16T01:51:58.283Z,102348.31
2023-02-16T01:54:52.312Z,102340.66
2023-02-16T01:57:25.604Z,102352.59
2023-02-16T01:59:55.786Z,102342.75
2023-02-16T02:02:27.550Z,102341.94
2023-02-16T02:05:19.009Z,102349.88
2023-02-16T02:07:52.109Z,102345.66
2023-02-16T02:10:28.536Z,102353.81
2023-02-16T02:13:36.137Z,102347.84
2023-02-16T02:16:04.917Z,102334.16
2023-02-16T02:18:32.929Z,102340.41
2023-02-16T02:21:46.372Z,102333.78
2023-02-16T02:24:50.639Z,102329.72
2023-02-16T02:27:39.186Z,102335.66
2023-02-16T02:30:23.809Z,102334.13
2023-02-16T02:32:56.690Z,102334.47
2023-02-16T02:35:42.532Z,102330.63
2023-02-16T02:38:15.456Z,102324.63
2023-02-16T02:40:57.888Z,102322.66
2023-02-16T02:43:52.590Z,102320.91
2023-02-16T02:46:26.813Z,102313.59
2023-02-16T02:48:53.440Z,102302.44
2023-02-16T02:51:30.450Z,102303.28
2023-02-16T02:54:32.756Z,102308.41
2023-02-16T02:57:26.219Z,102312.31
2023-02-16T03:00:21.623Z,102298.59
2023-02-16T03:02:51.804Z,102299.75
2023-02-16T03:05:22.217Z,102306.75
2023-02-16T03:07:52.396Z,102294.53
2023-02-16T03:10:45.140Z,102296.22
2023-02-16T03:13:24.021Z,102295.03
2023-02-16T03:15:55.980Z,102299.63
2023-02-16T03:18:45.064Z,102296.06
2023-02-16T03:21:33.290Z,102288.28
2023-02-16T03:24:21.358Z,102288.63
2023-02-16T03:27:09.336Z,102284.22
2023-02-16T03:29:37.090Z,102280.50
2023-02-16T03:32:04.187Z,102279.63
2023-02-16T03:34:31.989Z,102285.28
2023-02-16T03:37:00.744Z,102285.84
2023-02-16T03:39:28.894Z,102271.59
2023-02-16T03:41:57.250Z,102284.47
2023-02-16T03:44:27.320Z,102272.06
2023-02-16T03:46:53.864Z,102270.22
2023-02-16T03:49:20.735Z,102280.41
2023-02-16T03:51:47.388Z,102274.66
2023-02-16T03:54:13.937Z,102274.66
2023-02-16T03:56:40.453Z,102269.41
2023-02-16T03:59:06.986Z,102282.31
2023-02-16T04:01:33.558Z,102285.19
2023-02-16T04:04:00.141Z,102285.19
2023-02-16T04:06:26.703Z,102280.25
2023-02-16T04:08:54.451Z,102282.97
2023-02-16T04:11:39.601Z,102278.91
2023-02-16T04:14:06.231Z,102289.25
2023-02-16T04:18:59.732Z,102283.16
2023-02-16T04:21:26.225Z,102286.03
2023-02-16T04:23:52.856Z,102289.47
2023-02-16T04:26:19.399Z,102293.38
2023-02-16T04:28:46.217Z,102290.97
2023-02-16T04:31:12.777Z,102287.41
2023-02-16T04:33:39.436Z,102283.56
2023-02-16T04:36:06.482Z,102284.03
2023-02-16T04:38:33.078Z,102297.59
2023-02-16T04:41:00.094Z,102304.22
2023-02-16T04:43:26.657Z,102301.34
2023-02-16T04:45:53.314Z,102285.91
2023-02-16T04:48:19.817Z,102296.06
2023-02-16T04:50:46.349Z,102292.50
2023-02-16T04:53:12.839Z,102288.25
2023-02-16T04:55:39.384Z,102286.03
2023-02-16T04:58:05.941Z,102278.06
2023-02-16T05:00:33.604Z,102279.28
2023-02-16T05:03:01.034Z,102289.97
2023-02-16T05:05:27.499Z,102323.41
2023-02-16T05:07:54.050Z,102303.88
2023-02-16T05:10:20.656Z,102287.59
2023-02-16T05:13:05.723Z,102284.69
2023-02-16T05:15:32.316Z,102285.56
2023-02-16T05:17:58.914Z,102273.00
2023-02-16T05:20:45.436Z,102274.69
2023-02-16T05:23:11.970Z,102279.59
2023-02-16T05:25:38.525Z,102282.50
2023-02-16T05:28:05.349Z,102283.19
2023-02-16T05:30:32.041Z,102285.56
2023-02-16T05:32:58.539Z,102284.53
2023-02-16T05:35:25.080Z,102282.19
2023-02-16T05:37:51.690Z,102284.56
2023-02-16T05:40:18.338Z,102278.41
2023-02-16T05:42:44.937Z,102267.56
2023-02-16T05:45:11.496Z,102264.84
2023-02-16T05:47:38.394Z,102275.72
2023-02-16T05:50:05.430Z,102260.13
2023-02-16T05:52:31.991Z,102256.34
2023-02-16T05:54:58.470Z,102252.47
2023-02-16T05:57:25.030Z,102248.91
2023-02-16T05:59:51.572Z,102258.78
2023-02-16T06:02:18.256Z,102259.75
2023-02-16T06:04:44.845Z,102259.91
2023-02-16T06:07:13.802Z,102276.03
2023-02-16T06:09:41.405Z,102275.34
2023-02-16T06:12:07.981Z,102268.75
2023-02-16T06:14:34.530Z,102256.88
2023-02-16T06:17:01.449Z,102239.75
2023-02-16T06:19:28.037Z,102249.56
2023-02-16T06:21:54.591Z,102253.97
2023-02-16T06:24:21.130Z,102250.25
2023-02-16T06:26:47.656Z,102245.19
2023-02-16T06:29:14.221Z,102252.09
2023-02-16T06:31:40.863Z,102265.19
2023-02-16T06:34:07.551Z,102282.31
2023-02-16T06:36:35.292Z,102285.19
2023-02-16T06:39:02.269Z,102297.75
2023-02-16T06:41:32.104Z,102298.75
2023-02-16T06:44:04.642Z,102301.31
2023-02-16T06:46:31.376Z,102293.16
2023-02-16T06:48:58.195Z,102286.88
2023-02-16T06:51:25.577Z,102294.88
2023-02-16T06:53:52.173Z,102289.25
2023-02-16T06:56:18.745Z,102289.94
2023-02-16T06:58:45.249Z,102289.25
2023-02-16T07:01:12.064Z,102288.22
2023-02-16T07:03:38.677Z,102306.38
2023-02-16T07:06:05.866Z,102299.94
2023-02-16T07:08:32.454Z,102290.25
2023-02-16T07:10:58.969Z,102297.75
2023-02-16T07:13:25.495Z,102310.28
2023-02-16T07:15:52.209Z,102302.81
2023-02-16T07:18:19.170Z,102302.81
2023-02-16T07:20:45.717Z,102300.28
2023-02-16T07:23:12.216Z,102297.38
2023-02-16T07:25:38.839Z,102290.25
2023-02-16T07:28:05.426Z,102300.09
2023-02-16T07:30:32.033Z,102297.03
2023-02-16T07:32:58.612Z,102297.03
2023-02-16T07:35:25.444Z,102297.88
2023-02-16T07:37:51.984Z,102293.28
2023-02-16T07:40:18.585Z,102292.28
2023-02-16T07:42:45.140Z,102305.00
2023-02-16T07:45:11.781Z,102306.34
2023-02-16T07:47:38.314Z,102315.97
2023-02-16T07:50:05.824Z,102313.25
2023-02-16T07:52:32.462Z,102307.66
2023-02-16T07:54:59.201Z,102307.84
2023-02-16T07:57:26.987Z,102311.03
2023-02-16T07:59:54.045Z,102306.47
2023-02-16T08:02:24.526Z,102308.00
2023-02-16T08:04:53.919Z,102305.28
2023-02-16T08:07:20.985Z,102307.78
2023-02-16T08:09:47.507Z,102318.50
2023-02-16T08:12:15.685Z,102313.22
2023-02-16T08:14:42.798Z,102326.63
2023-02-16T08:17:09.891Z,102326.28
2023-02-16T08:19:39.240Z,102328.81
2023-02-16T08:22:07.144Z,102336.28
2023-02-16T08:24:34.701Z,102330.47
2023-02-16T08:27:04.617Z,102330.47
2023-02-16T08:29:32.728Z,102317.59
2023-02-16T08:31:59.731Z,102317.59
2023-02-16T08:34:26.863Z,102323.72
2023-02-16T08:36:56.425Z,102339.59
2023-02-16T08:39:26.026Z,102340.28
2023-02-16T08:41:53.619Z,102335.88
2023-02-16T08:44:22.515Z,102335.88
2023-02-16T08:46:51.345Z,102332.97
2023-02-16T08:49:19.305Z,102342.63
2023-02-16T08:51:52.700Z,102337.69
2023-02-16T08:54:22.432Z,102346.16
2023-02-16T08:56:49.595Z,102339.00
2023-02-16T08:59:17.901Z,102351.41
2023-02-16T09:01:44.902Z,102345.78
2023-02-16T09:04:11.779Z,102352.22
2023-02-16T09:06:40.248Z,102351.69
2023-02-16T09:09:08.759Z,102349.81
2023-02-16T09:11:36.510Z,102350.00
2023-02-16T09:14:04.082Z,102365.22
2023-02-16T09:16:38.329Z,102361.28
2023-02-16T09:19:07.740Z,102363.84
2023-02-16T09:21:34.318Z,102366.03
2023-02-16T09:24:04.515Z,102365.81
2023-02-16T09:26:34.244Z,102358.34
2023-02-16T09:29:02.052Z,102358.34
2023-02-16T09:31:32.509Z,102360.91
2023-02-16T09:34:05.723Z,102371.41
2023-02-16T09:36:32.504Z,102362.09
2023-02-16T09:38:59.711Z,102350.84
2023-02-16T09:41:41.232Z,102358.00
2023-02-16T09:44:17.121Z,102346.81
2023-02-16T09:46:43.910Z,102347.31
2023-02-16T09:49:40.783Z,102341.69
2023-02-16T09:52:27.702Z,102340.00
2023-02-16T09:54:57.608Z,102331.72
2023-02-16T09:57:56.998Z,102340.34
2023-02-16T10:00:32.366Z,102335.13
2023-02-16T10:03:14.152Z,102351.22
2023-02-16T10:06:14.156Z,102346.00
2023-02-16T10:08:46.840Z,102349.91
2023-02-16T10:11:38.143Z,102352.44
2023-02-16T10:14:46.971Z,102361.72
2023-02-16T10:17:17.041Z,102364.28
2023-02-16T10:19:49.524Z,102354.44
2023-02-16T10:22:40.897Z,102357.50
2023-02-16T10:25:24.807Z,102345.78
2023-02-16T10:28:05.918Z,102355.28
2023-02-16T10:30:32.761Z,102347.59
2023-02-16T10:33:24.213Z,102354.91
2023-02-16T10:36:01.575Z,102352.56
2023-02-16T10:38:57.764Z,102339.66
2023-02-16T10:41:36.934Z,102352.19
2023-02-16T10:44:21.685Z,102355.94
2023-02-16T10:46:58.457Z,102366.13
2023-02-16T10:49:25.850Z,102351.53
2023-02-16T10:51:55.351Z,102351.91
2023-02-16T10:54:32.531Z,102357.13
2023-02-16T10:57:23.770Z,102363.41
2023-02-16T10:59:50.616Z,102360.91
2023-02-16T11:02:30.330Z,102362.78
2023-02-16T11:04:58.643Z,102368.22
2023-02-16T11:07:31.167Z,102362.94
2023-02-16T11:10:01.317Z,102356.28
2023-02-16T11:12:32.358Z,102352.56
2023-02-16T11:15:06.052Z,102351.91
2023-02-16T11:17:55.149Z,102339.81
2023-02-16T11:20:45.063Z,102332.22
2023-02-16T11:23:17.665Z,102343.50
2023-02-16T11:26:03.736Z,102341.63
2023-02-16T11:28:36.737Z,102332.47
2023-02-16T11:31:38.531Z,102337.53
2023-02-16T11:34:12.544Z,102323.28
2023-02-16T11:36:44.468Z,102321.91
2023-02-16T11:39:13.813Z,102317.41
2023-02-16T11:41:54.264Z,102318.06
2023-02-16T11:44:44.411Z,102320.41
2023-02-16T11:47:28.604Z,102310.84
2023-02-16T11:50:23.654Z,102306.75
2023-02-16T11:53:09.328Z,102292.69
2023-02-16T11:55:38.907Z,102283.88
2023-02-16T11:58:25.237Z,102296.84
2023-02-16T12:01:42.844Z,102301.53
2023-02-16T12:04:33.693Z,102292.16
2023-02-16T12:07:20.244Z,102289.94
2023-02-16T12:10:12.429Z,102285.22
2023-02-16T12:12:59.504Z,102290.81
2023-02-16T12:15:48.086Z,102278.94
2023-02-16T12:18:29.647Z,102290.47
2023-02-16T12:21:04.532Z,102278.75
2023-02-16T12:23:42.647Z,102274.69
2023-02-16T12:26:22.097Z,102271.25
2023-02-16T12:28:54.433Z,102255.34
2023-02-16T12:31:28.267Z,102257.50
2023-02-16T12:34:13.716Z,102256.34
2023-02-16T12:36:53.159Z,102254.59
2023-02-16T12:39:35.410Z,102263.47
2023-02-16T12:42:35.849Z,102250.59
2023-02-16T12:45:10.791Z,102239.22
2023-02-16T12:47:49.576Z,102231.22
2023-02-16T12:50:24.122Z,102210.00
2023-02-16T12:53:41.134Z,102222.28
2023-02-16T12:56:14.451Z,102210.25
2023-02-16T12:58:45.584Z,102213.53
2023-02-16T13:01:18.780Z,102205.72
2023-02-16T13:04:26.685Z,102219.03
2023-02-16T13:07:16.324Z,102207.53
2023-02-16T13:09:59.982Z,102202.94
2023-02-16T13:12:40.717Z,102199.06
2023-02-16T13:15:30.459Z,102186.97
2023-02-16T13:18:01.837Z,102188.81
2023-02-16T13:20:28.739Z,102185.06
2023-02-16T13:23:20.877Z,102192.00
2023-02-16T13:25:59.199Z,102176.22
2023-02-16T13:28:46.374Z,102178.31
2023-02-16T13:31:31.292Z,102167.81
2023-02-16T13:34:22.407Z,102168.16
2023-02-16T13:36:54.872Z,102161.19
2023-02-16T13:39:44.229Z,102160.88
2023-02-16T13:42:33.876Z,102165.06
2023-02-16T13:45:04.060Z,102150.94
2023-02-16T13:47:38.349Z,102147.03
2023-02-16T13:50:08.676Z,102145.44
2023-02-16T13:52:41.088Z,102138.50
2023-02-16T13:55:29.227Z,102136.88
2023-02-16T13:58:04.553Z,102137.09
2023-02-16T14:00:42.067Z,102144.69
2023-02-16T14:03:17.687Z,102140.69
2023-02-16T14:05:48.135Z,102120.72
2023-02-16T14:08:29.596Z,102116.75
2023-02-16T14:10:57.390Z,102107.94
2023-02-16T14:13:29.848Z,102115.91
2023-02-16T14:16:00.797Z,102119.88
2023-02-16T14:18:58.443Z,102121.16
2023-02-16T14:21:34.252Z,102111.50
2023-02-16T14:24:03.197Z,102105.19
2023-02-16T14:26:31.842Z,102099.72
2023-02-16T14:29:17.506Z,102106.44
2023-02-16T14:31:50.970Z,102109.81
2023-02-16T14:34:43.047Z,102102.16
2023-02-16T14:37:16.130Z,102103.44
2023-02-16T14:40:06.933Z,102103.03
2023-02-16T14:42:35.727Z,102091.22
2023-02-16T14:45:34.262Z,102088.75
2023-02-16T14:48:13.375Z,102083.75
2023-02-16T14:51:01.616Z,102083.53
2023-02-16T14:54:02.264Z,102083.50
2023-02-16T14:56:39.082Z,102085.25
2023-02-16T14:59:17.658Z,102087.91
2023-02-16T15:01:45.772Z,102083.06
2023-02-16T15:04:12.530Z,102077.06
2023-02-16T15:06:42.723Z,102079.19
2023-02-16T15:09:25.542Z,102070.22
2023-02-16T15:12:22.986Z,102070.88
2023-02-16T15:14:57.227Z,102063.75
2023-02-16T15:17:39.347Z,102066.44
2023-02-16T15:20:19.705Z,102076.59
2023-02-16T15:22:54.816Z,102078.69
2023-02-16T15:25:26.087Z,102081.03
2023-02-16T15:28:08.756Z,102075.34
2023-02-16T15:30:39.299Z,102068.13
2023-02-16T15:33:14.038Z,102065.19
2023-02-16T15:35:42.645Z,102066.00
2023-02-16T15:38:19.631Z,102074.03
2023-02-16T15:40:46.806Z,102071.50
2023-02-16T15:43:30.836Z,102071.03
2023-02-16T15:45:58.731Z,102071.25
2023-02-16T15:48:31.594Z,102063.84
2023-02-16T15:51:12.951Z,102054.72
2023-02-16T15:53:46.614Z,102057.59
2023-02-16T15:56:39.901Z,102061.56
2023-02-16T15:59:26.421Z,102059.72
2023-02-16T16:02:04.119Z,102061.59
2023-02-16T16:04:31.775Z,102061.84
2023-02-16T16:07:00.058Z,102055.69
2023-02-16T16:09:32.916Z,102069.59
2023-02-16T16:12:10.710Z,102075.47
2023-02-16T16:14:42.853Z,102079.72
2023-02-16T16:17:15.684Z,102086.69
2023-02-16T16:19:42.269Z,102073.38
2023-02-16T16:22:29.313Z,102078.66
2023-02-16T16:24:55.843Z,102069.84
2023-02-16T16:27:36.040Z,102079.28
2023-02-16T16:30:26.313Z,102075.66
2023-02-16T16:33:11.872Z,102075.06
2023-02-16T16:35:44.444Z,102082.72
2023-02-16T16:38:27.541Z,102077.25
2023-02-16T16:40:57.692Z,102078.56
2023-02-16T16:43:28.646Z,102080.09
2023-02-16T16:46:12.232Z,102069.78
2023-02-16T16:48:44.233Z,102072.41
2023-02-16T16:51:15.184Z,102072.84
2023-02-16T16:53:50.363Z,102075.97
2023-02-16T16:56:17.289Z,102063.16
2023-02-16T16:58:43.909Z,102070.72
2023-02-16T17:01:12.857Z,102075.75
2023-02-16T17:03:39.348Z,102069.03
2023-02-16T17:06:06.873Z,102069.84
2023-02-16T17:08:33.501Z,102066.53
2023-02-16T17:11:01.617Z,102068.41
2023-02-16T17:13:28.162Z,102071.94
2023-02-16T17:16:02.598Z,102066.09
2023-02-16T17:18:29.487Z,102058.53
2023-02-16T17:20:56.123Z,102059.38
2023-02-16T17:23:23.056Z,102052.84
2023-02-16T17:25:50.519Z,102050.94
2023-02-16T17:28:18.915Z,102052.22
2023-02-16T17:30:45.826Z,102049.06
2023-02-16T17:33:12.751Z,102046.34
2023-02-16T17:35:41.676Z,102049.28
2023-02-16T17:38:10.483Z,102054.13
2023-02-16T17:40:37.258Z,102037.50
2023-02-16T17:43:10.842Z,102047.59
2023-02-16T17:45:37.385Z,102040.03
2023-02-16T17:48:04.065Z,102042.13
2023-02-16T17:50:32.736Z,102040.88
2023-02-16T17:52:59.786Z,102037.91
2023-02-16T17:55:26.318Z,102040.88
2023-02-16T17:57:55.690Z,102043.78
2023-02-16T18:00:22.697Z,102038.75
2023-02-16T18:02:49.318Z,102036.25
2023-02-16T18:05:15.905Z,102040.84
2023-02-16T18:07:42.482Z,102031.19
2023-02-16T18:10:16.342Z,102043.41
2023-02-16T18:12:42.872Z,102038.97
2023-02-16T18:15:09.488Z,102047.00
2023-02-16T18:17:36.105Z,102041.69
2023-02-16T18:20:04.216Z,102042.56
2023-02-16T18:22:30.807Z,102040.22
2023-02-16T18:24:57.368Z,102042.97
2023-02-16T18:27:27.472Z,102042.09
2023-02-16T18:29:55.857Z,102030.81
2023-02-16T18:32:22.416Z,102028.47
2023-02-16T18:34:49.118Z,102034.34
2023-02-16T18:37:15.679Z,102007.66
2023-02-16T18:39:42.913Z,102017.53
2023-02-16T18:42:10.138Z,102018.16
2023-02-16T18:44:36.652Z,102016.91
2023-02-16T18:47:03.314Z,102012.72
2023-02-16T18:49:29.860Z,102007.66
2023-02-16T18:51:57.185Z,102003.22
2023-02-16T18:54:23.949Z,102005.75
2023-02-16T18:56:50.714Z,102011.41
2023-02-16T18:59:17.271Z,102003.47
2023-02-16T19:01:43.829Z,102008.50
2023-02-16T19:04:12.022Z,102013.56
2023-02-16T19:06:39.309Z,102010.19
2023-02-16T19:09:05.921Z,102010.19
2023-02-16T19:11:33.702Z,102024.88
2023-02-16T19:14:00.334Z,102015.88
2023-02-16T19:16:26.925Z,102018.81
2023-02-16T19:18:53.424Z,102027.22
2023-02-16T19:21:19.983Z,102014.63
2023-02-16T19:23:46.825Z,102013.97
2023-02-16T19:26:15.754Z,102020.28
2023-02-16T19:28:42.911Z,102015.88
2023-02-16T19:31:17.299Z,102022.41
2023-02-16T19:33:43.934Z,102018.59
2023-02-16T19:36:12.699Z,102031.22
2023-02-16T19:38:39.778Z,102038.97
2023-02-16T19:41:14.942Z,102041.72
2023-02-16T19:43:42.135Z,102032.06
2023-02-16T19:46:10.270Z,102035.84
2023-02-16T19:48:36.934Z,102026.78
2023-02-16T19:51:05.747Z,102022.59
2023-02-16T19:53:33.809Z,102024.47
2023-02-16T19:56:00.483Z,102028.47
2023-02-16T19:58:27.089Z,102012.72
2023-02-16T20:00:53.604Z,102011.91
2023-02-16T20:03:20.114Z,102021.97
2023-02-16T20:05:46.583Z,102023.44
2023-02-16T20:08:13.182Z,102021.94
2023-02-16T20:10:41.826Z,102028.03
2023-02-16T20:13:08.445Z,102019.22
2023-02-16T20:15:35.184Z,102013.75
2023-02-16T20:18:01.794Z,102026.59
2023-02-16T20:20:28.538Z,102020.06
2023-02-16T20:22:55.024Z,102027.41
2023-02-16T20:25:21.574Z,102012.72
2023-02-16T20:27:48.170Z,102022.59
2023-02-16T20:30:19.678Z,102023.84
2023-02-16T20:32:49.214Z,102032.47
2023-02-16T20:35:16.264Z,102023.00
2023-02-16T20:37:42.906Z,102002.84
2023-02-16T20:40:09.932Z,102000.31
2023-02-16T20:42:36.522Z,102007.66
2023-02-16T20:45:03.348Z,101992.13
2023-02-16T20:47:29.876Z,101998.84
2023-02-16T20:49:56.420Z,101995.09
2023-02-16T20:52:23.079Z,101992.56
2023-02-16T20:54:49.601Z,101992.56
2023-02-16T20:57:26.486Z,101979.97
2023-02-16T20:59:54.492Z,101983.75
2023-02-16T21:02:21.080Z,101987.53
2023-02-16T21:04:47.660Z,101987.53
2023-02-16T21:07:14.198Z,101987.31
2023-02-16T21:09:40.849Z,101989.41
2023-02-16T21:12:07.442Z,101983.75
2023-02-16T21:14:33.950Z,101986.50
2023-02-16T21:17:00.582Z,101985.19
2023-02-16T21:19:27.179Z,101987.94
2023-02-16T21:21:53.710Z,101994.66
2023-02-16T21:24:20.466Z,101995.06
2023-02-16T21:26:47.073Z,102000.13
2023-02-16T21:29:16.878Z,102001.38
2023-02-16T21:31:43.505Z,102008.13
2023-02-16T21:34:10.135Z,102002.66
2023-02-16T21:36:37.610Z,101993.22
2023-02-16T21:39:04.972Z,101987.53
2023-02-16T21:41:31.771Z,101987.31
2023-02-16T21:44:07.760Z,101995.28
2023-02-16T21:46:38.741Z,101995.72
2023-02-16T21:49:07.241Z,101982.25
2023-02-16T21:51:35.706Z,101984.38
2023-02-16T21:54:04.620Z,101984.56
2023-02-16T21:56:43.194Z,101993.59
2023-02-16T21:59:14.722Z,101987.44
2023-02-16T22:01:47.187Z,101980.81
2023-02-16T22:04:16.284Z,101986.47
2023-02-16T22:06:45.487Z,101982.91
2023-02-16T22:09:20.914Z,101976.59
2023-02-16T22:11:48.027Z,101974.94
2023-02-16T22:14:14.894Z,101969.47
2023-02-16T22:16:41.599Z,101960.22
2023-02-16T22:19:12.237Z,101966.09
2023-02-16T22:21:40.625Z,101953.72
2023-02-16T22:24:07.917Z,101953.47
2023-02-16T22:26:35.640Z,101955.81
2023-02-16T22:29:04.366Z,101953.06
2023-02-16T22:31:31.061Z,101947.63
2023-02-16T22:33:59.702Z,101956.22
2023-02-16T22:36:26.473Z,101962.28
2023-02-16T22:38:54.014Z,101954.09
2023-02-16T22:41:21.386Z,101969.84
2023-02-16T22:43:48.156Z,101969.25
2023-02-16T22:46:16.546Z,101966.09
2023-02-16T22:48:43.978Z,101967.34
2023-02-16T22:51:13.116Z,101964.84
2023-02-16T22:53:39.682Z,101966.31
2023-02-16T22:56:08.363Z,101971.97
2023-02-16T22:58:35.080Z,101969.03
2023-02-16T23:01:01.647Z,101986.69
2023-02-16T23:03:29.233Z,101982.91
2023-02-16T23:05:56.092Z,101959.59
2023-02-16T23:08:22.989Z,101970.50
2023-02-16T23:11:01.896Z,101969.66
2023-02-16T23:13:30.248Z,101979.75
2023-02-16T23:16:02.104Z,101976.56
2023-02-16T23:18:28.519Z,101985.44
2023-02-16T23:20:55.057Z,101977.44
2023-02-16T23:23:21.573Z,101975.31
2023-02-16T23:25:49.494Z,101978.69
2023-02-16T23:28:16.181Z,101975.31
2023-02-16T23:30:46.842Z,101976.59
2023-02-16T23:33:13.474Z,101967.13
2023-02-16T23:35:41.137Z,101974.94
2023-02-16T23:38:13.600Z,101972.59
2023-02-16T23:40:40.717Z,101966.47
2023-02-16T23:43:07.694Z,101959.81
2023-02-16T23:45:34.902Z,101968.41
2023-02-16T23:48:01.586Z,101971.75
2023-02-16T23:50:28.168Z,101954.94
2023-02-16T23:52:54.694Z,101958.72
2023-02-16T23:55:21.257Z,101955.84
2023-02-16T23:57:47.737Z,101953.75
